sensor_id;sensor_type;location;lat;lon;timestamp;P1;durP1;ratioP1;P2;durP2;ratioP2
40373;SDS011;26079;45.958;12.492;2022-12-18T00:01:19;8.52;;;6.88;;
40373;SDS011;26079;45.958;12.492;2022-12-18T00:03:57;14.35;;;8.20;;
40373;SDS011;26079;45.958;12.492;2022-12-18T00:06:24;9.32;;;7.15;;
40373;SDS011;26079;45.958;12.492;2022-12-18T00:08:51;7.82;;;6.53;;
40373;SDS011;26079;45.958;12.492;2022-12-18T00:11:19;7.55;;;6.72;;
40373;SDS011;26079;45.958;12.492;2022-12-18T00:13:46;7.65;;;6.22;;
40373;SDS011;26079;45.958;12.492;2022-12-18T00:16:16;7.65;;;6.57;;
40373;SDS011;26079;45.958;12.492;2022-12-18T00:18:47;7.90;;;6.78;;
40373;SDS011;26079;45.958;12.492;2022-12-18T00:21:14;8.50;;;7.10;;
40373;SDS011;26079;45.958;12.492;2022-12-18T00:23:41;7.57;;;6.20;;
40373;SDS011;26079;45.958;12.492;2022-12-18T00:26:12;9.73;;;7.05;;
40373;SDS011;26079;45.958;12.492;2022-12-18T00:28:40;12.10;;;9.20;;
40373;SDS011;26079;45.958;12.492;2022-12-18T00:31:08;15.52;;;11.45;;
40373;SDS011;26079;45.958;12.492;2022-12-18T00:33:36;10.70;;;8.05;;
40373;SDS011;26079;45.958;12.492;2022-12-18T00:36:06;12.18;;;8.88;;
40373;SDS011;26079;45.958;12.492;2022-12-18T00:38:36;9.60;;;7.85;;
40373;SDS011;26079;45.958;12.492;2022-12-18T00:41:03;9.75;;;6.63;;
40373;SDS011;26079;45.958;12.492;2022-12-18T00:43:34;9.02;;;5.88;;
40373;SDS011;26079;45.958;12.492;2022-12-18T00:46:00;9.90;;;7.05;;
40373;SDS011;26079;45.958;12.492;2022-12-18T00:48:26;9.55;;;8.25;;
40373;SDS011;26079;45.958;12.492;2022-12-18T00:50:52;7.97;;;6.97;;
40373;SDS011;26079;45.958;12.492;2022-12-18T00:53:24;8.35;;;6.65;;
40373;SDS011;26079;45.958;12.492;2022-12-18T00:55:49;10.07;;;6.60;;
40373;SDS011;26079;45.958;12.492;2022-12-18T00:58:16;7.65;;;5.78;;
40373;SDS011;26079;45.958;12.492;2022-12-18T01:00:42;6.63;;;6.03;;
40373;SDS011;26079;45.958;12.492;2022-12-18T01:03:09;10.85;;;7.45;;
40373;SDS011;26079;45.958;12.492;2022-12-18T01:05:40;11.35;;;9.23;;
40373;SDS011;26079;45.958;12.492;2022-12-18T01:08:07;9.55;;;8.00;;
40373;SDS011;26079;45.958;12.492;2022-12-18T01:10:33;10.52;;;8.07;;
40373;SDS011;26079;45.958;12.492;2022-12-18T01:12:58;8.65;;;7.07;;
40373;SDS011;26079;45.958;12.492;2022-12-18T01:15:24;7.07;;;5.50;;
40373;SDS011;26079;45.958;12.492;2022-12-18T01:17:53;7.35;;;6.65;;
40373;SDS011;26079;45.958;12.492;2022-12-18T01:20:18;7.00;;;5.90;;
40373;SDS011;26079;45.958;12.492;2022-12-18T01:22:47;7.72;;;6.93;;
40373;SDS011;26079;45.958;12.492;2022-12-18T01:25:13;6.63;;;5.93;;
40373;SDS011;26079;45.958;12.492;2022-12-18T01:27:38;10.48;;;6.80;;
40373;SDS011;26079;45.958;12.492;2022-12-18T01:30:04;9.50;;;7.93;;
40373;SDS011;26079;45.958;12.492;2022-12-18T01:32:31;10.25;;;7.68;;
40373;SDS011;26079;45.958;12.492;2022-12-18T01:34:57;8.80;;;6.63;;
40373;SDS011;26079;45.958;12.492;2022-12-18T01:37:23;6.72;;;5.50;;
40373;SDS011;26079;45.958;12.492;2022-12-18T01:39:49;5.88;;;5.28;;
40373;SDS011;26079;45.958;12.492;2022-12-18T01:42:15;10.77;;;7.47;;
40373;SDS011;26079;45.958;12.492;2022-12-18T01:50:25;10.55;;;8.68;;
40373;SDS011;26079;45.958;12.492;2022-12-18T01:55:25;9.20;;;8.07;;
40373;SDS011;26079;45.958;12.492;2022-12-18T01:57:55;9.27;;;7.28;;
40373;SDS011;26079;45.958;12.492;2022-12-18T02:00:25;11.77;;;7.22;;
40373;SDS011;26079;45.958;12.492;2022-12-18T02:02:52;8.73;;;6.57;;
40373;SDS011;26079;45.958;12.492;2022-12-18T02:08:20;9.65;;;7.45;;
40373;SDS011;26079;45.958;12.492;2022-12-18T02:11:04;8.75;;;7.22;;
40373;SDS011;26079;45.958;12.492;2022-12-18T02:13:50;8.73;;;7.00;;
40373;SDS011;26079;45.958;12.492;2022-12-18T02:16:42;9.98;;;7.28;;
40373;SDS011;26079;45.958;12.492;2022-12-18T02:25:28;7.78;;;6.95;;
40373;SDS011;26079;45.958;12.492;2022-12-18T02:27:59;8.52;;;7.65;;
40373;SDS011;26079;45.958;12.492;2022-12-18T02:30:31;9.85;;;7.97;;
40373;SDS011;26079;45.958;12.492;2022-12-18T02:33:00;7.30;;;6.57;;
40373;SDS011;26079;45.958;12.492;2022-12-18T02:35:27;10.23;;;7.22;;
40373;SDS011;26079;45.958;12.492;2022-12-18T02:37:58;7.78;;;7.00;;
40373;SDS011;26079;45.958;12.492;2022-12-18T02:40:25;6.65;;;5.75;;
40373;SDS011;26079;45.958;12.492;2022-12-18T02:42:52;8.27;;;6.68;;
40373;SDS011;26079;45.958;12.492;2022-12-18T02:45:28;7.22;;;6.22;;
40373;SDS011;26079;45.958;12.492;2022-12-18T02:47:56;8.23;;;6.47;;
40373;SDS011;26079;45.958;12.492;2022-12-18T02:50:26;9.30;;;7.30;;
40373;SDS011;26079;45.958;12.492;2022-12-18T02:53:10;7.30;;;5.93;;
40373;SDS011;26079;45.958;12.492;2022-12-18T02:56:20;6.90;;;6.13;;
40373;SDS011;26079;45.958;12.492;2022-12-18T03:01:37;7.68;;;6.25;;
40373;SDS011;26079;45.958;12.492;2022-12-18T03:04:52;11.23;;;6.22;;
40373;SDS011;26079;45.958;12.492;2022-12-18T03:06:55;6.95;;;5.97;;
40373;SDS011;26079;45.958;12.492;2022-12-18T03:09:29;7.80;;;6.07;;
40373;SDS011;26079;45.958;12.492;2022-12-18T03:18:32;8.63;;;6.45;;
40373;SDS011;26079;45.958;12.492;2022-12-18T03:20:51;8.05;;;7.25;;
40373;SDS011;26079;45.958;12.492;2022-12-18T03:23:22;6.88;;;6.18;;
40373;SDS011;26079;45.958;12.492;2022-12-18T03:25:51;7.88;;;6.63;;
40373;SDS011;26079;45.958;12.492;2022-12-18T03:28:20;9.10;;;6.78;;
40373;SDS011;26079;45.958;12.492;2022-12-18T03:30:47;7.05;;;6.35;;
40373;SDS011;26079;45.958;12.492;2022-12-18T03:33:24;9.48;;;6.65;;
40373;SDS011;26079;45.958;12.492;2022-12-18T03:35:52;9.30;;;6.80;;
40373;SDS011;26079;45.958;12.492;2022-12-18T03:38:18;8.05;;;6.28;;
40373;SDS011;26079;45.958;12.492;2022-12-18T03:40:51;19.45;;;6.07;;
40373;SDS011;26079;45.958;12.492;2022-12-18T03:46:14;7.03;;;6.30;;
40373;SDS011;26079;45.958;12.492;2022-12-18T03:49:11;7.43;;;6.38;;
40373;SDS011;26079;45.958;12.492;2022-12-18T03:52:01;6.38;;;5.72;;
40373;SDS011;26079;45.958;12.492;2022-12-18T03:54:34;6.80;;;6.18;;
40373;SDS011;26079;45.958;12.492;2022-12-18T03:57:09;7.88;;;7.03;;
40373;SDS011;26079;45.958;12.492;2022-12-18T03:59:40;7.07;;;6.43;;
40373;SDS011;26079;45.958;12.492;2022-12-18T04:02:11;9.32;;;6.85;;
40373;SDS011;26079;45.958;12.492;2022-12-18T04:04:37;6.38;;;5.60;;
40373;SDS011;26079;45.958;12.492;2022-12-18T04:07:04;8.82;;;7.13;;
40373;SDS011;26079;45.958;12.492;2022-12-18T04:09:32;7.03;;;5.68;;
40373;SDS011;26079;45.958;12.492;2022-12-18T04:12:01;5.70;;;5.10;;
40373;SDS011;26079;45.958;12.492;2022-12-18T04:14:27;7.55;;;5.25;;
40373;SDS011;26079;45.958;12.492;2022-12-18T04:16:53;6.57;;;5.10;;
40373;SDS011;26079;45.958;12.492;2022-12-18T04:19:19;5.63;;;5.03;;
40373;SDS011;26079;45.958;12.492;2022-12-18T04:21:44;6.32;;;5.22;;
40373;SDS011;26079;45.958;12.492;2022-12-18T04:24:10;7.45;;;6.32;;
40373;SDS011;26079;45.958;12.492;2022-12-18T04:26:35;6.72;;;5.97;;
40373;SDS011;26079;45.958;12.492;2022-12-18T04:29:01;8.02;;;5.55;;
40373;SDS011;26079;45.958;12.492;2022-12-18T04:31:30;7.40;;;5.95;;
40373;SDS011;26079;45.958;12.492;2022-12-18T04:33:56;7.45;;;6.10;;
40373;SDS011;26079;45.958;12.492;2022-12-18T04:36:21;8.18;;;7.15;;
40373;SDS011;26079;45.958;12.492;2022-12-18T04:38:47;7.80;;;5.43;;
40373;SDS011;26079;45.958;12.492;2022-12-18T04:41:13;6.90;;;6.15;;
40373;SDS011;26079;45.958;12.492;2022-12-18T04:43:38;6.15;;;5.32;;
40373;SDS011;26079;45.958;12.492;2022-12-18T04:46:05;6.97;;;5.75;;
40373;SDS011;26079;45.958;12.492;2022-12-18T04:48:31;6.35;;;5.63;;
40373;SDS011;26079;45.958;12.492;2022-12-18T04:50:58;7.28;;;5.47;;
40373;SDS011;26079;45.958;12.492;2022-12-18T04:53:24;7.00;;;6.30;;
40373;SDS011;26079;45.958;12.492;2022-12-18T04:55:50;9.75;;;6.25;;
40373;SDS011;26079;45.958;12.492;2022-12-18T04:58:15;7.05;;;5.95;;
40373;SDS011;26079;45.958;12.492;2022-12-18T05:00:41;7.03;;;5.30;;
40373;SDS011;26079;45.958;12.492;2022-12-18T05:03:08;7.53;;;6.18;;
40373;SDS011;26079;45.958;12.492;2022-12-18T05:05:34;8.00;;;6.22;;
40373;SDS011;26079;45.958;12.492;2022-12-18T05:08:00;6.85;;;5.40;;
40373;SDS011;26079;45.958;12.492;2022-12-18T05:10:26;6.90;;;5.57;;
40373;SDS011;26079;45.958;12.492;2022-12-18T05:12:51;6.40;;;5.68;;
40373;SDS011;26079;45.958;12.492;2022-12-18T05:15:29;7.28;;;6.15;;
40373;SDS011;26079;45.958;12.492;2022-12-18T05:17:56;6.95;;;6.25;;
40373;SDS011;26079;45.958;12.492;2022-12-18T05:20:22;7.05;;;5.47;;
40373;SDS011;26079;45.958;12.492;2022-12-18T05:22:48;9.00;;;7.25;;
40373;SDS011;26079;45.958;12.492;2022-12-18T05:25:14;7.47;;;6.68;;
40373;SDS011;26079;45.958;12.492;2022-12-18T05:27:40;7.15;;;5.18;;
40373;SDS011;26079;45.958;12.492;2022-12-18T05:30:06;6.75;;;5.90;;
40373;SDS011;26079;45.958;12.492;2022-12-18T05:32:32;9.00;;;5.82;;
40373;SDS011;26079;45.958;12.492;2022-12-18T05:34:58;9.35;;;6.45;;
40373;SDS011;26079;45.958;12.492;2022-12-18T05:37:23;6.25;;;5.50;;
40373;SDS011;26079;45.958;12.492;2022-12-18T05:39:49;10.43;;;5.60;;
40373;SDS011;26079;45.958;12.492;2022-12-18T05:42:15;9.85;;;5.38;;
40373;SDS011;26079;45.958;12.492;2022-12-18T05:44:40;7.45;;;6.55;;
40373;SDS011;26079;45.958;12.492;2022-12-18T05:47:09;6.40;;;5.80;;
40373;SDS011;26079;45.958;12.492;2022-12-18T05:49:35;7.28;;;5.00;;
40373;SDS011;26079;45.958;12.492;2022-12-18T05:52:00;6.90;;;5.97;;
40373;SDS011;26079;45.958;12.492;2022-12-18T05:54:27;9.48;;;7.13;;
40373;SDS011;26079;45.958;12.492;2022-12-18T05:56:53;6.72;;;5.93;;
40373;SDS011;26079;45.958;12.492;2022-12-18T05:59:22;8.48;;;6.72;;
40373;SDS011;26079;45.958;12.492;2022-12-18T06:01:48;7.85;;;7.07;;
40373;SDS011;26079;45.958;12.492;2022-12-18T06:04:13;7.15;;;5.88;;
40373;SDS011;26079;45.958;12.492;2022-12-18T06:06:39;7.03;;;6.18;;
40373;SDS011;26079;45.958;12.492;2022-12-18T06:09:05;6.70;;;6.05;;
40373;SDS011;26079;45.958;12.492;2022-12-18T06:11:37;9.68;;;8.70;;
40373;SDS011;26079;45.958;12.492;2022-12-18T06:14:04;8.60;;;6.75;;
40373;SDS011;26079;45.958;12.492;2022-12-18T06:16:33;9.30;;;7.40;;
40373;SDS011;26079;45.958;12.492;2022-12-18T06:18:59;9.82;;;7.47;;
40373;SDS011;26079;45.958;12.492;2022-12-18T06:21:27;7.70;;;6.45;;
40373;SDS011;26079;45.958;12.492;2022-12-18T06:23:53;7.00;;;6.30;;
40373;SDS011;26079;45.958;12.492;2022-12-18T06:26:25;10.43;;;7.95;;
40373;SDS011;26079;45.958;12.492;2022-12-18T06:28:50;9.35;;;6.78;;
40373;SDS011;26079;45.958;12.492;2022-12-18T06:31:16;8.43;;;7.10;;
40373;SDS011;26079;45.958;12.492;2022-12-18T06:33:42;8.98;;;7.95;;
40373;SDS011;26079;45.958;12.492;2022-12-18T06:36:09;9.55;;;7.20;;
40373;SDS011;26079;45.958;12.492;2022-12-18T06:38:37;10.02;;;8.90;;
40373;SDS011;26079;45.958;12.492;2022-12-18T06:41:14;12.75;;;10.52;;
40373;SDS011;26079;45.958;12.492;2022-12-18T06:43:45;14.05;;;10.60;;
40373;SDS011;26079;45.958;12.492;2022-12-18T06:46:10;16.25;;;10.15;;
40373;SDS011;26079;45.958;12.492;2022-12-18T06:48:36;12.00;;;9.52;;
40373;SDS011;26079;45.958;12.492;2022-12-18T06:51:02;11.57;;;8.65;;
40373;SDS011;26079;45.958;12.492;2022-12-18T06:53:29;11.18;;;8.10;;
40373;SDS011;26079;45.958;12.492;2022-12-18T06:56:04;12.00;;;8.68;;
40373;SDS011;26079;45.958;12.492;2022-12-18T06:58:34;12.57;;;9.48;;
40373;SDS011;26079;45.958;12.492;2022-12-18T07:01:00;26.80;;;17.33;;
40373;SDS011;26079;45.958;12.492;2022-12-18T07:03:30;18.08;;;16.17;;
40373;SDS011;26079;45.958;12.492;2022-12-18T07:05:59;19.33;;;11.25;;
40373;SDS011;26079;45.958;12.492;2022-12-18T07:08:24;11.10;;;9.10;;
40373;SDS011;26079;45.958;12.492;2022-12-18T07:10:50;11.00;;;9.20;;
40373;SDS011;26079;45.958;12.492;2022-12-18T07:13:16;10.07;;;8.93;;
40373;SDS011;26079;45.958;12.492;2022-12-18T07:15:42;11.40;;;9.48;;
40373;SDS011;26079;45.958;12.492;2022-12-18T07:18:11;11.70;;;9.40;;
40373;SDS011;26079;45.958;12.492;2022-12-18T07:20:37;10.98;;;9.80;;
40373;SDS011;26079;45.958;12.492;2022-12-18T07:23:03;12.35;;;9.77;;
40373;SDS011;26079;45.958;12.492;2022-12-18T07:25:30;15.82;;;9.95;;
40373;SDS011;26079;45.958;12.492;2022-12-18T07:27:59;15.98;;;10.98;;
40373;SDS011;26079;45.958;12.492;2022-12-18T07:30:25;15.50;;;11.93;;
40373;SDS011;26079;45.958;12.492;2022-12-18T07:32:51;13.77;;;9.57;;
40373;SDS011;26079;45.958;12.492;2022-12-18T07:35:19;16.73;;;11.48;;
40373;SDS011;26079;45.958;12.492;2022-12-18T07:37:47;15.98;;;12.25;;
40373;SDS011;26079;45.958;12.492;2022-12-18T07:40:13;14.13;;;11.13;;
40373;SDS011;26079;45.958;12.492;2022-12-18T07:42:39;14.13;;;12.43;;
40373;SDS011;26079;45.958;12.492;2022-12-18T07:45:04;15.63;;;11.10;;
40373;SDS011;26079;45.958;12.492;2022-12-18T07:47:30;14.88;;;10.93;;
40373;SDS011;26079;45.958;12.492;2022-12-18T07:50:03;17.48;;;12.32;;
40373;SDS011;26079;45.958;12.492;2022-12-18T07:52:31;18.20;;;12.23;;
40373;SDS011;26079;45.958;12.492;2022-12-18T07:54:57;17.25;;;14.18;;
40373;SDS011;26079;45.958;12.492;2022-12-18T07:57:23;15.20;;;13.68;;
40373;SDS011;26079;45.958;12.492;2022-12-18T07:59:48;16.98;;;14.90;;
40373;SDS011;26079;45.958;12.492;2022-12-18T08:02:14;19.45;;;14.30;;
40373;SDS011;26079;45.958;12.492;2022-12-18T08:04:40;17.08;;;15.32;;
40373;SDS011;26079;45.958;12.492;2022-12-18T08:07:05;18.50;;;15.05;;
40373;SDS011;26079;45.958;12.492;2022-12-18T08:09:31;23.30;;;17.10;;
40373;SDS011;26079;45.958;12.492;2022-12-18T08:11:57;23.15;;;17.27;;
40373;SDS011;26079;45.958;12.492;2022-12-18T08:14:22;29.38;;;18.58;;
40373;SDS011;26079;45.958;12.492;2022-12-18T08:16:51;32.65;;;18.75;;
40373;SDS011;26079;45.958;12.492;2022-12-18T08:19:17;19.85;;;15.98;;
40373;SDS011;26079;45.958;12.492;2022-12-18T08:21:42;18.48;;;15.70;;
40373;SDS011;26079;45.958;12.492;2022-12-18T08:24:08;23.98;;;18.00;;
40373;SDS011;26079;45.958;12.492;2022-12-18T08:26:35;19.17;;;17.15;;
40373;SDS011;26079;45.958;12.492;2022-12-18T08:29:01;19.42;;;16.63;;
40373;SDS011;26079;45.958;12.492;2022-12-18T08:31:27;19.63;;;15.63;;
40373;SDS011;26079;45.958;12.492;2022-12-18T08:33:54;18.60;;;16.08;;
40373;SDS011;26079;45.958;12.492;2022-12-18T08:36:21;14.98;;;13.27;;
40373;SDS011;26079;45.958;12.492;2022-12-18T08:38:50;16.55;;;14.85;;
40373;SDS011;26079;45.958;12.492;2022-12-18T08:41:16;16.60;;;14.90;;
40373;SDS011;26079;45.958;12.492;2022-12-18T08:43:42;19.38;;;14.18;;
40373;SDS011;26079;45.958;12.492;2022-12-18T08:46:27;16.88;;;14.00;;
40373;SDS011;26079;45.958;12.492;2022-12-18T08:48:57;17.05;;;14.80;;
40373;SDS011;26079;45.958;12.492;2022-12-18T08:51:26;20.98;;;15.75;;
40373;SDS011;26079;45.958;12.492;2022-12-18T08:53:52;24.20;;;19.52;;
40373;SDS011;26079;45.958;12.492;2022-12-18T08:56:17;22.30;;;17.08;;
40373;SDS011;26079;45.958;12.492;2022-12-18T08:58:43;16.27;;;14.30;;
40373;SDS011;26079;45.958;12.492;2022-12-18T09:01:09;18.50;;;15.77;;
40373;SDS011;26079;45.958;12.492;2022-12-18T09:03:37;20.20;;;15.07;;
40373;SDS011;26079;45.958;12.492;2022-12-18T09:06:03;17.38;;;14.27;;
40373;SDS011;26079;45.958;12.492;2022-12-18T09:08:29;20.55;;;15.40;;
40373;SDS011;26079;45.958;12.492;2022-12-18T09:10:55;20.85;;;16.63;;
40373;SDS011;26079;45.958;12.492;2022-12-18T09:13:21;19.77;;;15.10;;
40373;SDS011;26079;45.958;12.492;2022-12-18T09:15:48;14.43;;;12.27;;
40373;SDS011;26079;45.958;12.492;2022-12-18T09:18:16;20.92;;;15.88;;
40373;SDS011;26079;45.958;12.492;2022-12-18T09:20:46;13.23;;;11.85;;
40373;SDS011;26079;45.958;12.492;2022-12-18T09:23:12;13.90;;;10.25;;
40373;SDS011;26079;45.958;12.492;2022-12-18T09:25:38;12.13;;;10.82;;
40373;SDS011;26079;45.958;12.492;2022-12-18T09:28:14;15.57;;;11.50;;
40373;SDS011;26079;45.958;12.492;2022-12-18T09:30:42;19.45;;;13.70;;
40373;SDS011;26079;45.958;12.492;2022-12-18T09:33:13;10.63;;;8.85;;
40373;SDS011;26079;45.958;12.492;2022-12-18T09:35:40;10.55;;;9.40;;
40373;SDS011;26079;45.958;12.492;2022-12-18T09:38:07;8.45;;;6.82;;
40373;SDS011;26079;45.958;12.492;2022-12-18T09:40:36;12.00;;;10.18;;
40373;SDS011;26079;45.958;12.492;2022-12-18T09:45:58;26.08;;;15.60;;
40373;SDS011;26079;45.958;12.492;2022-12-18T09:48:30;16.10;;;12.00;;
40373;SDS011;26079;45.958;12.492;2022-12-18T09:51:01;10.88;;;8.07;;
40373;SDS011;26079;45.958;12.492;2022-12-18T09:53:32;18.02;;;12.88;;
40373;SDS011;26079;45.958;12.492;2022-12-18T09:56:00;7.35;;;5.97;;
40373;SDS011;26079;45.958;12.492;2022-12-18T09:58:33;11.00;;;8.88;;
40373;SDS011;26079;45.958;12.492;2022-12-18T10:01:14;6.28;;;5.53;;
40373;SDS011;26079;45.958;12.492;2022-12-18T10:03:45;9.98;;;7.13;;
40373;SDS011;26079;45.958;12.492;2022-12-18T10:06:26;7.80;;;5.93;;
40373;SDS011;26079;45.958;12.492;2022-12-18T10:14:43;8.82;;;6.80;;
40373;SDS011;26079;45.958;12.492;2022-12-18T10:17:46;7.25;;;5.97;;
40373;SDS011;26079;45.958;12.492;2022-12-18T10:22:57;5.93;;;5.35;;
40373;SDS011;26079;45.958;12.492;2022-12-18T10:25:49;11.18;;;5.88;;
40373;SDS011;26079;45.958;12.492;2022-12-18T10:28:33;10.05;;;6.53;;
40373;SDS011;26079;45.958;12.492;2022-12-18T10:31:00;7.25;;;5.60;;
40373;SDS011;26079;45.958;12.492;2022-12-18T10:33:30;7.28;;;6.35;;
40373;SDS011;26079;45.958;12.492;2022-12-18T10:35:57;7.10;;;6.20;;
40373;SDS011;26079;45.958;12.492;2022-12-18T10:38:25;7.50;;;6.00;;
40373;SDS011;26079;45.958;12.492;2022-12-18T10:43:25;7.50;;;6.72;;
40373;SDS011;26079;45.958;12.492;2022-12-18T10:48:26;6.80;;;6.10;;
40373;SDS011;26079;45.958;12.492;2022-12-18T10:50:53;9.98;;;7.43;;
40373;SDS011;26079;45.958;12.492;2022-12-18T10:53:27;8.15;;;6.47;;
40373;SDS011;26079;45.958;12.492;2022-12-18T10:55:54;8.23;;;7.22;;
40373;SDS011;26079;45.958;12.492;2022-12-18T10:58:24;10.00;;;8.88;;
40373;SDS011;26079;45.958;12.492;2022-12-18T11:01:10;8.93;;;7.72;;
40373;SDS011;26079;45.958;12.492;2022-12-18T11:03:42;8.73;;;7.50;;
40373;SDS011;26079;45.958;12.492;2022-12-18T11:06:11;9.45;;;7.45;;
40373;SDS011;26079;45.958;12.492;2022-12-18T11:08:39;8.65;;;7.10;;
40373;SDS011;26079;45.958;12.492;2022-12-18T11:11:14;11.45;;;6.80;;
40373;SDS011;26079;45.958;12.492;2022-12-18T11:14:04;8.07;;;7.05;;
40373;SDS011;26079;45.958;12.492;2022-12-18T11:16:43;8.13;;;7.32;;
40373;SDS011;26079;45.958;12.492;2022-12-18T11:21:54;8.30;;;7.50;;
40373;SDS011;26079;45.958;12.492;2022-12-18T11:26:47;9.85;;;6.60;;
40373;SDS011;26079;45.958;12.492;2022-12-18T11:29:22;8.75;;;5.85;;
40373;SDS011;26079;45.958;12.492;2022-12-18T11:31:55;8.82;;;5.85;;
40373;SDS011;26079;45.958;12.492;2022-12-18T11:34:41;7.13;;;6.20;;
40373;SDS011;26079;45.958;12.492;2022-12-18T11:37:10;11.70;;;9.80;;
40373;SDS011;26079;45.958;12.492;2022-12-18T11:39:45;9.82;;;7.80;;
40373;SDS011;26079;45.958;12.492;2022-12-18T11:47:49;7.68;;;6.63;;
40373;SDS011;26079;45.958;12.492;2022-12-18T11:52:50;9.43;;;7.30;;
40373;SDS011;26079;45.958;12.492;2022-12-18T11:55:20;12.98;;;9.32;;
40373;SDS011;26079;45.958;12.492;2022-12-18T12:00:28;11.38;;;7.97;;
40373;SDS011;26079;45.958;12.492;2022-12-18T12:03:14;8.32;;;6.65;;
40373;SDS011;26079;45.958;12.492;2022-12-18T12:06:09;7.75;;;5.90;;
40373;SDS011;26079;45.958;12.492;2022-12-18T12:08:45;7.32;;;6.55;;
40373;SDS011;26079;45.958;12.492;2022-12-18T12:11:20;7.25;;;6.60;;
40373;SDS011;26079;45.958;12.492;2022-12-18T12:16:42;7.18;;;6.47;;
40373;SDS011;26079;45.958;12.492;2022-12-18T12:19:29;7.45;;;6.43;;
40373;SDS011;26079;45.958;12.492;2022-12-18T12:25:32;6.90;;;5.55;;
40373;SDS011;26079;45.958;12.492;2022-12-18T12:31:05;7.20;;;6.53;;
40373;SDS011;26079;45.958;12.492;2022-12-18T12:36:18;6.78;;;6.07;;
40373;SDS011;26079;45.958;12.492;2022-12-18T12:39:09;6.93;;;6.15;;
40373;SDS011;26079;45.958;12.492;2022-12-18T12:41:38;7.40;;;6.63;;
40373;SDS011;26079;45.958;12.492;2022-12-18T12:44:25;7.85;;;6.82;;
40373;SDS011;26079;45.958;12.492;2022-12-18T12:46:59;8.00;;;6.63;;
40373;SDS011;26079;45.958;12.492;2022-12-18T12:49:30;8.35;;;7.25;;
40373;SDS011;26079;45.958;12.492;2022-12-18T12:51:59;8.93;;;6.63;;
40373;SDS011;26079;45.958;12.492;2022-12-18T12:54:40;7.97;;;6.63;;
40373;SDS011;26079;45.958;12.492;2022-12-18T13:05:14;47.42;;;25.13;;
40373;SDS011;26079;45.958;12.492;2022-12-18T13:07:59;13.73;;;9.23;;
40373;SDS011;26079;45.958;12.492;2022-12-18T13:10:41;15.27;;;10.00;;
40373;SDS011;26079;45.958;12.492;2022-12-18T13:13:11;8.50;;;7.55;;
40373;SDS011;26079;45.958;12.492;2022-12-18T13:15:42;9.27;;;8.05;;
40373;SDS011;26079;45.958;12.492;2022-12-18T13:25:51;8.73;;;7.82;;
40373;SDS011;26079;45.958;12.492;2022-12-18T13:30:54;9.70;;;7.15;;
40373;SDS011;26079;45.958;12.492;2022-12-18T13:36:15;9.63;;;7.68;;
40373;SDS011;26079;45.958;12.492;2022-12-18T13:38:47;7.78;;;6.65;;
40373;SDS011;26079;45.958;12.492;2022-12-18T13:41:35;13.63;;;9.75;;
40373;SDS011;26079;45.958;12.492;2022-12-18T13:47:05;14.00;;;10.27;;
40373;SDS011;26079;45.958;12.492;2022-12-18T13:49:49;14.65;;;11.48;;
40373;SDS011;26079;45.958;12.492;2022-12-18T13:52:20;13.10;;;9.52;;
40373;SDS011;26079;45.958;12.492;2022-12-18T13:54:52;12.98;;;9.77;;
40373;SDS011;26079;45.958;12.492;2022-12-18T13:59:58;10.70;;;8.35;;
40373;SDS011;26079;45.958;12.492;2022-12-18T14:02:44;8.45;;;7.65;;
40373;SDS011;26079;45.958;12.492;2022-12-18T14:05:28;16.20;;;8.80;;
40373;SDS011;26079;45.958;12.492;2022-12-18T14:07:59;14.40;;;9.55;;
40373;SDS011;26079;45.958;12.492;2022-12-18T14:10:39;9.63;;;8.25;;
40373;SDS011;26079;45.958;12.492;2022-12-18T14:15:56;11.02;;;9.13;;
40373;SDS011;26079;45.958;12.492;2022-12-18T14:21:27;12.02;;;8.55;;
40373;SDS011;26079;45.958;12.492;2022-12-18T14:24:15;10.38;;;9.15;;
40373;SDS011;26079;45.958;12.492;2022-12-18T14:26:41;10.48;;;9.38;;
40373;SDS011;26079;45.958;12.492;2022-12-18T14:29:21;9.82;;;8.82;;
40373;SDS011;26079;45.958;12.492;2022-12-18T14:32:30;9.73;;;8.63;;
40373;SDS011;26079;45.958;12.492;2022-12-18T14:34:52;10.82;;;9.73;;
40373;SDS011;26079;45.958;12.492;2022-12-18T14:37:24;12.32;;;11.00;;
40373;SDS011;26079;45.958;12.492;2022-12-18T14:40:00;11.75;;;10.55;;
40373;SDS011;26079;45.958;12.492;2022-12-18T14:42:29;13.55;;;10.57;;
40373;SDS011;26079;45.958;12.492;2022-12-18T14:48:16;12.50;;;11.18;;
40373;SDS011;26079;45.958;12.492;2022-12-18T14:50:44;13.35;;;10.77;;
40373;SDS011;26079;45.958;12.492;2022-12-18T14:53:20;11.13;;;9.55;;
40373;SDS011;26079;45.958;12.492;2022-12-18T14:55:53;11.38;;;9.52;;
40373;SDS011;26079;45.958;12.492;2022-12-18T14:58:19;11.20;;;9.88;;
40373;SDS011;26079;45.958;12.492;2022-12-18T15:00:45;11.25;;;9.40;;
40373;SDS011;26079;45.958;12.492;2022-12-18T15:03:12;12.10;;;8.98;;
40373;SDS011;26079;45.958;12.492;2022-12-18T15:05:42;12.05;;;9.93;;
40373;SDS011;26079;45.958;12.492;2022-12-18T15:08:50;14.13;;;9.52;;
40373;SDS011;26079;45.958;12.492;2022-12-18T15:11:01;11.43;;;10.23;;
40373;SDS011;26079;45.958;12.492;2022-12-18T15:13:27;10.15;;;9.15;;
40373;SDS011;26079;45.958;12.492;2022-12-18T15:15:53;11.52;;;10.32;;
40373;SDS011;26079;45.958;12.492;2022-12-18T15:18:23;13.48;;;11.68;;
40373;SDS011;26079;45.958;12.492;2022-12-18T15:24:13;11.82;;;9.55;;
40373;SDS011;26079;45.958;12.492;2022-12-18T15:26:47;10.82;;;9.48;;
40373;SDS011;26079;45.958;12.492;2022-12-18T15:29:21;12.38;;;10.60;;
40373;SDS011;26079;45.958;12.492;2022-12-18T15:32:01;11.57;;;10.27;;
40373;SDS011;26079;45.958;12.492;2022-12-18T15:34:29;13.50;;;10.40;;
40373;SDS011;26079;45.958;12.492;2022-12-18T15:36:58;14.55;;;11.30;;
40373;SDS011;26079;45.958;12.492;2022-12-18T15:39:27;13.48;;;11.15;;
40373;SDS011;26079;45.958;12.492;2022-12-18T15:41:52;20.45;;;12.82;;
40373;SDS011;26079;45.958;12.492;2022-12-18T15:44:37;15.40;;;11.05;;
40373;SDS011;26079;45.958;12.492;2022-12-18T15:47:07;12.55;;;11.32;;
40373;SDS011;26079;45.958;12.492;2022-12-18T15:49:35;14.90;;;12.70;;
40373;SDS011;26079;45.958;12.492;2022-12-18T15:52:01;12.65;;;11.02;;
40373;SDS011;26079;45.958;12.492;2022-12-18T15:54:27;13.70;;;11.57;;
40373;SDS011;26079;45.958;12.492;2022-12-18T15:57:11;19.75;;;13.65;;
40373;SDS011;26079;45.958;12.492;2022-12-18T15:59:58;21.42;;;19.10;;
40373;SDS011;26079;45.958;12.492;2022-12-18T16:02:24;25.40;;;20.80;;
40373;SDS011;26079;45.958;12.492;2022-12-18T16:04:51;23.05;;;18.55;;
40373;SDS011;26079;45.958;12.492;2022-12-18T16:07:20;18.10;;;15.93;;
40373;SDS011;26079;45.958;12.492;2022-12-18T16:09:58;19.98;;;15.88;;
40373;SDS011;26079;45.958;12.492;2022-12-18T16:12:24;30.02;;;20.20;;
40373;SDS011;26079;45.958;12.492;2022-12-18T16:14:56;36.30;;;28.38;;
40373;SDS011;26079;45.958;12.492;2022-12-18T16:17:32;30.25;;;23.10;;
40373;SDS011;26079;45.958;12.492;2022-12-18T16:19:58;29.58;;;22.98;;
40373;SDS011;26079;45.958;12.492;2022-12-18T16:22:27;25.55;;;21.75;;
40373;SDS011;26079;45.958;12.492;2022-12-18T16:24:57;28.35;;;21.80;;
40373;SDS011;26079;45.958;12.492;2022-12-18T16:27:25;28.20;;;23.73;;
40373;SDS011;26079;45.958;12.492;2022-12-18T16:29:51;33.67;;;22.48;;
40373;SDS011;26079;45.958;12.492;2022-12-18T16:32:20;31.40;;;23.73;;
40373;SDS011;26079;45.958;12.492;2022-12-18T16:34:51;32.92;;;23.52;;